Time;durP1;ratioP1;P1;durP2;ratioP2;P2;SDS_P1;SDS_P2;PMS_P1;PMS_P2;Temp;Humidity;BMP_temperature;BMP_pressure;BME280_temperature;BME280_humidity;BME280_pressure;Samples;Min_cycle;Max_cycle;Signal;HPM_P1;HPM_P2
2022/08/10 00:00:32;;;;;;;2.53;1.40;;;;;;;26.84;36.26;98783.22;6126877;23;20611;-89
2022/08/10 00:02:59;;;;;;;4.35;1.13;;;;;;;26.81;36.46;98786.28;6126765;23;20155;-89
2022/08/10 00:05:26;;;;;;;2.57;1.50;;;;;;;26.86;36.23;98777.63;6127048;23;20231;-89
2022/08/10 00:07:52;;;;;;;1.85;1.20;;;;;;;26.90;36.07;98776.22;6126637;23;20172;-90
2022/08/10 00:10:20;;;;;;;2.03;0.97;;;;;;;26.83;36.26;98770.78;6127018;23;20152;-89
2022/08/10 00:12:47;;;;;;;5.43;1.97;;;;;;;26.83;36.58;98768.06;6126891;23;20155;-90
2022/08/10 00:15:15;;;;;;;2.67;1.58;;;;;;;26.87;36.85;98765.84;6127115;23;20210;-89
2022/08/10 00:17:41;;;;;;;2.37;1.30;;;;;;;26.94;36.41;98764.03;6101418;23;20620;-89
2022/08/10 00:20:09;;;;;;;2.63;1.13;;;;;;;26.94;36.44;98771.31;6101036;23;20203;-89
2022/08/10 00:22:36;;;;;;;3.67;1.30;;;;;;;26.89;36.46;98771.06;6127270;23;20162;-89
2022/08/10 00:25:04;;;;;;;2.07;1.03;;;;;;;26.93;36.45;98773.16;6126881;23;20152;-89
2022/08/10 00:27:31;;;;;;;3.17;1.60;;;;;;;26.99;36.05;98774.25;6100932;23;20179;-89
2022/08/10 00:29:57;;;;;;;4.00;1.90;;;;;;;26.94;36.52;98780.19;6125428;23;20155;-89
2022/08/10 00:32:23;;;;;;;4.17;1.90;;;;;;;26.86;36.42;98785.69;6125434;23;20160;-89
2022/08/10 00:34:50;;;;;;;5.43;1.73;;;;;;;27.08;36.24;98779.28;6126841;23;20148;-89
2022/08/10 00:37:17;;;;;;;2.50;1.57;;;;;;;27.08;36.09;98773.91;6100959;23;20247;-89
2022/08/10 00:39:43;;;;;;;3.43;1.60;;;;;;;27.02;36.07;98776.56;6126529;23;20233;-89
2022/08/10 00:42:11;;;;;;;5.20;1.13;;;;;;;26.91;36.34;98780.59;6100869;23;20167;-89
2022/08/10 00:44:38;;;;;;;4.40;2.07;;;;;;;26.97;36.01;98784.34;6100883;23;20470;-89
2022/08/10 00:47:06;;;;;;;5.50;1.60;;;;;;;26.87;36.07;98784.69;6101256;23;20472;-89
2022/08/10 00:49:32;;;;;;;5.63;1.77;;;;;;;26.77;36.58;98784.16;6125535;23;20251;-89
2022/08/10 00:52:00;;;;;;;3.30;1.70;;;;;;;26.82;36.52;98797.88;6100834;23;20159;-89
2022/08/10 00:54:26;;;;;;;6.00;2.00;;;;;;;26.87;36.80;98789.22;6126656;23;20148;-89
2022/08/10 00:56:52;;;;;;;3.60;1.90;;;;;;;26.84;36.58;98790.44;6126623;23;20588;-89
2022/08/10 00:59:18;;;;;;;4.90;2.15;;;;;;;26.81;36.80;98790.81;6100746;23;20191;-89
2022/08/10 01:01:45;;;;;;;3.80;2.10;;;;;;;26.84;36.58;98793.97;6126282;23;20152;-89
2022/08/10 01:04:10;;;;;;;5.50;2.03;;;;;;;26.80;36.31;98784.63;6126640;23;20219;-89
2022/08/10 01:07:00;;;;;;;6.97;2.20;;;;;;;26.76;36.54;98787.84;6126261;23;20151;-89
2022/08/10 01:09:50;;;;;;;6.10;1.77;;;;;;;26.75;36.94;98788.88;6126624;23;20159;-88
2022/08/10 01:12:38;;;;;;;7.30;2.20;;;;;;;26.80;36.56;98789.16;6126564;23;20148;-89
2022/08/10 01:15:10;;;;;;;4.30;1.80;;;;;;;26.71;36.88;98793.78;6114637;23;20168;-88
2022/08/10 01:17:47;;;;;;;4.27;2.40;;;;;;;26.74;36.74;98795.28;6100617;23;20223;-89
2022/08/10 01:20:21;;;;;;;6.10;2.20;;;;;;;26.72;36.98;98787.41;6126532;23;20562;-89
2022/08/10 01:23:11;;;;;;;6.00;2.40;;;;;;;26.61;37.28;98789.75;6126528;23;20139;-89
2022/08/10 01:25:58;;;;;;;3.27;1.60;;;;;;;26.51;37.88;98798.13;6126188;23;20163;-89
2022/08/10 01:28:32;;;;;;;3.57;1.77;;;;;;;26.54;37.84;98794.25;6126138;23;20172;-88
2022/08/10 01:31:01;;;;;;;7.47;1.80;;;;;;;26.50;37.59;98787.56;6126105;23;20135;-88
2022/08/10 01:33:35;;;;;;;3.83;2.10;;;;;;;26.44;38.30;98793.72;6126141;23;20591;-89
2022/08/10 01:36:18;;;;;;;8.70;2.27;;;;;;;26.41;38.01;98791.41;6126460;23;20147;-89
2022/08/10 01:38:47;;;;;;;3.45;1.73;;;;;;;26.38;37.85;98783.72;6126565;23;20128;-89
2022/08/10 01:41:28;;;;;;;3.90;1.93;;;;;;;26.28;38.04;98780.50;6126571;23;20214;-89
2022/08/10 01:44:00;;;;;;;4.73;2.30;;;;;;;26.33;38.05;98791.50;6127158;23;20136;-89
2022/08/10 01:46:28;;;;;;;3.80;1.97;;;;;;;26.29;38.07;98784.84;6126806;23;20195;-89
2022/08/10 01:48:59;;;;;;;3.27;2.17;;;;;;;26.27;38.23;98781.50;6126623;23;20190;-89
2022/08/10 01:51:48;;;;;;;9.13;2.70;;;;;;;26.19;38.24;98785.13;6127119;23;20226;-88
2022/08/10 01:54:19;;;;;;;5.77;2.43;;;;;;;26.22;38.17;98782.91;6126043;23;20144;-89
2022/08/10 01:56:49;;;;;;;2.97;1.75;;;;;;;26.10;38.52;98779.00;6128043;23;20140;-88
2022/08/10 01:59:20;;;;;;;5.37;1.93;;;;;;;26.11;38.52;98780.69;6128252;23;20152;-89
2022/08/10 02:01:58;;;;;;;6.90;2.23;;;;;;;26.14;38.56;98779.50;6102444;23;20163;-89
2022/08/10 02:04:26;;;;;;;5.70;1.63;;;;;;;26.10;38.68;98778.19;6128320;23;20369;-89
2022/08/10 02:06:53;;;;;;;3.83;1.83;;;;;;;26.16;38.55;98774.75;6127800;23;20589;-89
2022/08/10 02:09:25;;;;;;;3.60;1.70;;;;;;;26.12;38.92;98774.31;6126768;23;20239;-89
2022/08/10 02:11:54;;;;;;;4.00;1.97;;;;;;;26.07;39.17;98776.69;6128151;23;20548;-89
2022/08/10 02:14:24;;;;;;;3.50;1.83;;;;;;;26.16;38.91;98774.75;6128154;23;20183;-88
2022/08/10 02:16:51;;;;;;;2.93;1.53;;;;;;;26.18;38.80;98768.19;6127720;23;20148;-88
2022/08/10 02:19:20;;;;;;;3.10;1.83;;;;;;;26.06;39.17;98769.66;6128172;23;20144;-88
2022/08/10 02:21:49;;;;;;;4.03;2.03;;;;;;;26.07;39.38;98776.69;6127671;23;20179;-88
2022/08/10 02:24:18;;;;;;;4.22;1.92;;;;;;;26.06;39.11;98768.81;6128063;23;20179;-88
2022/08/10 02:26:45;;;;;;;3.73;1.63;;;;;;;26.08;39.50;98772.97;6102215;23;20163;-88
2022/08/10 02:29:14;;;;;;;2.73;1.33;;;;;;;26.08;39.27;98764.94;6127592;23;20187;-88
2022/08/10 02:31:42;;;;;;;6.07;1.60;;;;;;;26.05;39.36;98772.53;6128289;23;20553;-89
2022/08/10 02:34:10;;;;;;;3.90;1.90;;;;;;;26.01;39.51;98764.03;6128016;23;20311;-88
2022/08/10 02:36:45;;;;;;;5.33;1.83;;;;;;;26.05;39.36;98767.16;6127928;23;20147;-88
2022/08/10 02:39:15;;;;;;;3.40;1.60;;;;;;;26.09;39.30;98771.97;6127668;23;20135;-89
2022/08/10 02:41:42;;;;;;;4.33;1.63;;;;;;;26.10;39.43;98770.94;6127581;23;20152;-89
2022/08/10 02:44:23;;;;;;;4.00;1.60;;;;;;;26.06;39.47;98777.72;6127523;23;20159;-89
2022/08/10 02:46:58;;;;;;;4.03;1.40;;;;;;;25.97;39.87;98775.34;6127875;23;20580;-89
2022/08/10 02:49:50;;;;;;;5.30;1.93;;;;;;;26.01;39.91;98765.88;6127938;23;20147;-89
2022/08/10 02:52:33;;;;;;;6.27;1.80;;;;;;;26.03;39.76;98775.41;6090157;23;20252;-89
2022/08/10 02:55:08;;;;;;;2.33;1.43;;;;;;;25.95;39.71;98772.81;6127864;23;20609;-89
2022/08/10 02:57:39;;;;;;;3.07;1.53;;;;;;;26.02;39.69;98779.09;6127568;23;20151;-89
2022/08/10 03:00:07;;;;;;;4.43;2.27;;;;;;;25.98;40.00;98785.88;6127781;23;20140;-88
2022/08/10 03:02:40;;;;;;;7.17;2.03;;;;;;;25.94;39.92;98786.44;6127397;23;20152;-88
2022/08/10 03:05:10;;;;;;;6.53;1.80;;;;;;;25.88;40.01;98793.41;6101781;23;20455;-88
2022/08/10 03:08:02;;;;;;;4.77;1.87;;;;;;;25.83;40.12;98795.81;6127875;23;20634;-88
2022/08/10 03:10:31;;;;;;;3.63;1.77;;;;;;;25.80;40.29;98798.00;6127994;23;20203;-89
2022/08/10 03:13:00;;;;;;;4.80;1.80;;;;;;;25.73;40.42;98805.16;6127235;23;20154;-89
2022/08/10 03:15:28;;;;;;;3.30;1.50;;;;;;;25.78;40.36;98805.44;6127842;23;20152;-89
2022/08/10 03:17:56;;;;;;;3.63;1.57;;;;;;;25.69;40.51;98804.69;6127881;23;20445;-88
2022/08/10 03:20:23;;;;;;;5.10;1.97;;;;;;;25.68;40.81;98808.41;6127179;23;20148;-89
2022/08/10 03:22:50;;;;;;;3.07;1.87;;;;;;;25.70;40.51;98803.66;6127536;23;20162;-89
2022/08/10 03:25:20;;;;;;;5.00;2.03;;;;;;;25.69;40.86;98804.69;6127235;23;20148;-88
2022/08/10 03:27:47;;;;;;;4.87;1.70;;;;;;;25.73;40.43;98803.31;6101446;23;20679;-89
2022/08/10 03:30:13;;;;;;;4.27;1.87;;;;;;;25.81;40.40;98805.91;6101498;23;20156;-89
2022/08/10 03:32:41;;;;;;;3.30;1.60;;;;;;;25.79;40.55;98810.59;6127020;23;20148;-89
2022/08/10 03:35:08;;;;;;;2.97;1.50;;;;;;;25.78;40.41;98803.59;6126932;23;20163;-88
2022/08/10 03:37:34;;;;;;;5.33;1.50;;;;;;;25.80;40.55;98812.28;6125882;23;20174;-88
2022/08/10 03:40:00;;;;;;;5.63;2.10;;;;;;;25.91;40.58;98813.66;6127046;23;20214;-88
2022/08/10 03:42:29;;;;;;;3.07;1.47;;;;;;;25.86;40.67;98814.22;6126943;23;20147;-88
2022/08/10 03:44:57;;;;;;;5.90;1.80;;;;;;;25.82;40.75;98818.28;6101367;23;20624;-88
2022/08/10 03:47:24;;;;;;;2.87;1.63;;;;;;;25.82;40.81;98820.97;6125096;23;20230;-88
2022/08/10 03:49:53;;;;;;;4.20;1.93;;;;;;;25.76;40.73;98824.38;6101406;23;20180;-89
2022/08/10 03:52:20;;;;;;;3.03;1.37;;;;;;;25.85;40.50;98828.66;6126946;23;20186;-89
2022/08/10 03:54:50;;;;;;;3.80;1.80;;;;;;;25.88;40.40;98822.94;6127278;23;20148;-88
2022/08/10 03:57:18;;;;;;;3.53;1.90;;;;;;;25.85;40.76;98820.63;6127154;23;20230;-88
2022/08/10 03:59:45;;;;;;;5.37;1.90;;;;;;;25.91;40.96;98822.56;6126263;23;20615;-88
2022/08/10 04:02:11;;;;;;;3.83;2.00;;;;;;;26.00;40.79;98824.13;6124816;23;20474;-89
2022/08/10 04:04:37;;;;;;;4.03;1.77;;;;;;;25.85;40.65;98827.84;6125182;23;20576;-89
2022/08/10 04:07:03;;;;;;;3.17;1.87;;;;;;;25.91;40.39;98824.41;6100239;23;20599;-89
2022/08/10 04:09:34;;;;;;;4.40;1.80;;;;;;;25.89;40.40;98827.25;6126570;23;20231;-89
2022/08/10 04:12:00;;;;;;;3.87;1.73;;;;;;;25.91;40.83;98833.31;6124818;23;20151;-89
2022/08/10 04:14:25;;;;;;;9.77;2.07;;;;;;;25.88;40.84;98833.69;6127751;23;20215;-90
2022/08/10 04:16:51;;;;;;;3.50;1.70;;;;;;;25.93;40.63;98839.31;6126610;23;20517;-90
2022/08/10 04:19:20;;;;;;;3.70;2.03;;;;;;;25.98;40.64;98841.44;6127364;23;20144;-89
2022/08/10 04:21:53;;;;;;;5.57;2.00;;;;;;;26.07;40.62;98835.78;6126557;23;20273;-89
2022/08/10 04:24:23;;;;;;;4.53;1.83;;;;;;;26.11;40.43;98834.41;6127022;23;20144;-89
2022/08/10 04:26:49;;;;;;;4.57;1.80;;;;;;;26.05;40.88;98845.03;6126572;23;20180;-89
2022/08/10 04:29:14;;;;;;;3.90;1.70;;;;;;;26.08;40.64;98848.22;6126472;23;20184;-89
2022/08/10 04:31:43;;;;;;;4.00;1.93;;;;;;;26.23;40.63;98849.06;6125361;23;20243;-89
2022/08/10 04:34:10;;;;;;;4.27;1.90;;;;;;;26.26;40.76;98857.78;6100969;23;20230;-89
2022/08/10 04:36:38;;;;;;;3.77;1.90;;;;;;;26.20;40.67;98862.06;6126763;23;20587;-89
2022/08/10 04:39:04;;;;;;;8.70;1.73;;;;;;;26.38;40.99;98857.13;6126893;23;20230;-89
2022/08/10 04:41:30;;;;;;;5.50;1.93;;;;;;;26.40;40.53;98857.75;6101707;23;20458;-88
2022/08/10 04:43:56;;;;;;;4.77;1.83;;;;;;;26.39;40.61;98856.06;6101328;23;20199;-89
2022/08/10 04:46:21;;;;;;;4.37;1.70;;;;;;;26.63;40.33;98858.44;6100714;23;20175;-89
2022/08/10 04:48:47;;;;;;;3.77;1.80;;;;;;;26.67;40.63;98861.59;6126752;23;20242;-90
2022/08/10 04:51:15;;;;;;;5.47;2.10;;;;;;;26.66;40.43;98862.63;6126413;23;20602;-89
2022/08/10 04:53:41;;;;;;;5.23;2.60;;;;;;;26.76;40.20;98863.13;6127154;23;20151;-90
2022/08/10 04:56:07;;;;;;;4.27;2.20;;;;;;;26.74;40.62;98859.81;6100851;23;20603;-89
2022/08/10 04:58:34;;;;;;;7.37;2.27;;;;;;;26.70;40.13;98869.28;6126690;23;20144;-89
2022/08/10 05:01:00;;;;;;;3.93;1.63;;;;;;;26.81;40.40;98868.81;6126732;23;20156;-89
2022/08/10 05:03:25;;;;;;;6.93;2.30;;;;;;;26.78;40.23;98867.34;6126383;23;20275;-89
2022/08/10 05:05:51;;;;;;;5.33;2.10;;;;;;;27.02;40.34;98879.59;6126652;23;20533;-89
2022/08/10 05:08:16;;;;;;;2.90;2.00;;;;;;;27.15;39.86;98874.34;6125093;23;20187;-90
2022/08/10 05:10:42;;;;;;;3.57;2.20;;;;;;;27.29;39.72;98875.31;6127282;23;20152;-90
2022/08/10 05:13:07;;;;;;;3.67;2.03;;;;;;;27.39;39.36;98874.00;6126672;23;20159;-90
2022/08/10 05:15:33;;;;;;;3.40;2.00;;;;;;;27.47;39.34;98878.41;6123832;23;20529;-90
2022/08/10 05:17:58;;;;;;;6.77;1.90;;;;;;;27.56;38.94;98877.25;6126134;23;20599;-91
2022/08/10 05:20:24;;;;;;;4.50;2.10;;;;;;;27.56;39.10;98876.41;6126241;23;20156;-91
2022/08/10 05:22:49;;;;;;;4.23;2.23;;;;;;;27.62;39.07;98876.44;6126158;23;20148;-90
2022/08/10 05:25:17;;;;;;;3.92;2.15;;;;;;;27.70;39.47;98878.19;6126739;23;20147;-91
2022/08/10 05:27:44;;;;;;;9.98;2.10;;;;;;;27.84;39.53;98879.94;6124185;23;20198;-91
2022/08/10 05:30:17;;;;;;;4.65;2.00;;;;;;;27.82;39.52;98890.09;6127318;23;20148;-90
2022/08/10 05:32:43;;;;;;;4.80;2.27;;;;;;;27.89;39.11;98885.56;6102567;23;20152;-91
2022/08/10 05:35:11;;;;;;;5.15;2.17;;;;;;;27.82;39.33;98882.84;6128070;23;20175;-90
2022/08/10 05:37:37;;;;;;;6.30;2.38;;;;;;;27.85;39.86;98887.84;6128215;23;20531;-91
2022/08/10 05:40:05;;;;;;;7.82;1.98;;;;;;;27.85;39.65;98890.53;6102510;23;20155;-89
2022/08/10 05:42:31;;;;;;;3.60;2.03;;;;;;;27.93;39.45;98892.25;6128051;23;20148;-90
2022/08/10 05:44:57;;;;;;;5.13;1.73;;;;;;;27.94;39.54;98875.03;6127974;23;20200;-90
2022/08/10 05:47:23;;;;;;;3.95;2.17;;;;;;;27.98;39.19;98876.31;6125843;23;20259;-90
2022/08/10 05:49:49;;;;;;;4.65;2.20;;;;;;;28.04;39.44;98875.53;6102278;23;20504;-90
2022/08/10 05:52:16;;;;;;;3.70;1.65;;;;;;;28.04;39.46;98880.91;6102935;23;20160;-90
2022/08/10 05:54:42;;;;;;;4.32;2.17;;;;;;;28.25;39.73;98882.72;6127833;23;20568;-89
2022/08/10 05:57:09;;;;;;;6.18;1.75;;;;;;;28.23;39.34;98879.38;6102240;23;20156;-89
2022/08/10 05:59:38;;;;;;;5.00;2.30;;;;;;;28.36;39.29;98880.28;6128169;23;20156;-90
2022/08/10 06:02:06;;;;;;;5.95;1.70;;;;;;;28.55;39.31;98884.94;6127794;23;20168;-89
2022/08/10 06:04:43;;;;;;;5.55;1.67;;;;;;;28.58;39.34;98891.81;6127795;23;20298;-89
2022/08/10 06:07:13;;;;;;;3.88;2.10;;;;;;;28.75;38.67;98881.53;6102198;23;20151;-90
2022/08/10 06:09:42;;;;;;;3.58;1.95;;;;;;;28.89;38.64;98889.44;6127542;23;20148;-91
2022/08/10 06:12:09;;;;;;;3.33;1.67;;;;;;;28.97;38.41;98889.28;6102479;23;20281;-89
2022/08/10 06:17:37;;;;;;;4.78;1.60;;;;;;;29.08;38.56;98885.16;6039118;23;20562;-90
2022/08/10 06:20:04;;;;;;;3.45;1.70;;;;;;;29.34;38.16;98885.22;6090186;23;20160;-90
2022/08/10 06:22:32;;;;;;;3.30;1.88;;;;;;;29.22;37.60;98882.28;6128094;23;20623;-89
2022/08/10 06:25:00;;;;;;;3.25;1.67;;;;;;;29.47;38.58;98890.63;6127876;23;20148;-90
2022/08/10 06:27:26;;;;;;;9.65;2.75;;;;;;;29.68;38.09;98882.31;6101752;23;20278;-89
2022/08/10 06:29:52;;;;;;;3.63;1.83;;;;;;;29.81;37.33;98884.22;6127462;23;20183;-90
2022/08/10 06:32:24;;;;;;;2.30;1.60;;;;;;;29.93;37.47;98879.00;6127212;23;20147;-89
2022/08/10 06:34:52;;;;;;;3.22;1.80;;;;;;;29.96;37.80;98873.16;6125147;23;20490;-89
2022/08/10 06:37:24;;;;;;;3.92;1.83;;;;;;;29.96;37.49;98873.16;6125325;23;20234;-89
2022/08/10 06:39:52;;;;;;;3.58;2.03;;;;;;;30.07;36.84;98876.06;6099159;23;20152;-89
2022/08/10 06:42:34;;;;;;;3.10;1.65;;;;;;;30.21;37.33;98876.88;6124958;23;20156;-89
2022/08/10 06:45:07;;;;;;;2.85;1.60;;;;;;;30.32;37.13;98878.91;6124733;23;20140;-89
2022/08/10 06:47:42;;;;;;;2.88;1.88;;;;;;;30.52;37.14;98879.72;6124860;23;20234;-90
2022/08/10 06:50:18;;;;;;;3.88;2.10;;;;;;;30.93;36.51;98871.19;6123809;23;20482;-90
2022/08/10 06:52:46;;;;;;;2.20;1.38;;;;;;;31.19;35.79;98872.91;6124938;23;20151;-90
2022/08/10 06:55:13;;;;;;;6.03;3.65;;;;;;;31.43;35.78;98867.53;6075897;23;20164;-90
2022/08/10 06:57:40;;;;;;;6.55;1.90;;;;;;;31.64;35.19;98869.06;6101563;23;20594;-90
2022/08/10 07:00:10;;;;;;;3.53;2.08;;;;;;;31.80;34.13;98868.50;6102250;23;20344;-90
2022/08/10 07:02:45;;;;;;;3.83;2.10;;;;;;;31.89;34.81;98866.34;6101573;23;20152;-89
2022/08/10 07:05:17;;;;;;;3.42;2.10;;;;;;;32.11;34.66;98868.41;6127581;23;20140;-90
2022/08/10 07:07:46;;;;;;;3.22;1.88;;;;;;;32.45;33.86;98861.56;6126962;23;20164;-89
2022/08/10 07:10:15;;;;;;;4.13;1.70;;;;;;;32.64;34.28;98857.81;6127590;23;20207;-91
2022/08/10 07:12:43;;;;;;;3.20;1.60;;;;;;;32.94;33.20;98857.81;6127241;23;20152;-90
2022/08/10 07:15:12;;;;;;;3.20;1.60;;;;;;;32.98;33.21;98850.88;6125958;23;20532;-91
2022/08/10 07:17:38;;;;;;;5.07;2.03;;;;;;;32.75;33.14;98848.06;6101581;23;20206;-90
2022/08/10 07:20:07;;;;;;;2.90;1.65;;;;;;;32.89;33.73;98852.22;6101811;23;20556;-90
2022/08/10 07:22:36;;;;;;;2.75;1.60;;;;;;;33.04;33.29;98851.81;6101760;23;20502;-90
2022/08/10 07:25:04;;;;;;;7.63;3.22;;;;;;;33.21;32.86;98856.41;6127100;23;20148;-90
2022/08/10 07:27:32;;;;;;;2.42;1.63;;;;;;;33.37;32.85;98850.28;6127115;23;20180;-90
2022/08/10 07:29:59;;;;;;;8.30;4.03;;;;;;;33.58;32.41;98856.25;6101376;23;20160;-90
2022/08/10 07:32:26;;;;;;;3.97;2.38;;;;;;;33.61;32.50;98856.63;6127011;23;20162;-91
2022/08/10 07:34:54;;;;;;;3.45;1.55;;;;;;;33.75;32.94;98859.94;6127528;23;20530;-91
2022/08/10 07:37:22;;;;;;;3.47;1.70;;;;;;;33.85;32.34;98861.00;6126909;23;20229;-90
2022/08/10 07:39:50;;;;;;;3.10;1.80;;;;;;;33.73;32.00;98853.88;6101436;23;20171;-89
2022/08/10 07:42:19;;;;;;;2.08;1.15;;;;;;;33.89;31.47;98859.47;6127572;23;20231;-90
2022/08/10 07:44:46;;;;;;;4.68;2.03;;;;;;;33.83;31.75;98854.16;6101693;23;20160;-91
2022/08/10 07:47:17;;;;;;;4.68;2.22;;;;;;;33.95;31.58;98857.69;6100876;23;20267;-89
2022/08/10 07:49:57;;;;;;;4.63;1.52;;;;;;;34.08;32.22;98845.75;6126937;23;20147;-89
2022/08/10 07:52:24;;;;;;;7.25;2.80;;;;;;;34.10;31.28;98855.34;6126389;23;20147;-90
2022/08/10 07:54:52;;;;;;;4.22;2.45;;;;;;;34.15;31.31;98855.44;6126632;23;20152;-91
2022/08/10 07:57:28;;;;;;;3.28;1.95;;;;;;;34.16;32.06;98857.09;6100653;23;20162;-90
2022/08/10 08:00:01;;;;;;;3.08;1.48;;;;;;;34.16;32.22;98854.38;6099822;23;20222;-90
2022/08/10 08:02:33;;;;;;;4.00;1.90;;;;;;;34.22;31.92;98850.72;6126786;23;20156;-91
2022/08/10 08:05:03;;;;;;;6.10;2.28;;;;;;;34.53;30.91;98853.00;6126725;23;20140;-90
2022/08/10 08:07:29;;;;;;;5.70;2.50;;;;;;;34.66;30.73;98848.38;6126561;23;20175;-90
2022/08/10 08:09:56;;;;;;;4.13;2.00;;;;;;;34.47;31.34;98845.81;6126876;23;20160;-92
2022/08/10 08:12:23;;;;;;;4.32;1.48;;;;;;;34.44;31.80;98843.56;6126675;23;20191;-91
2022/08/10 08:14:52;;;;;;;4.65;1.75;;;;;;;34.67;30.99;98848.13;6126974;23;20163;-91
2022/08/10 08:17:17;;;;;;;6.43;2.67;;;;;;;34.81;30.82;98843.22;6101114;23;20160;-90
2022/08/10 08:19:51;;;;;;;12.73;6.97;;;;;;;34.78;31.39;98844.53;6100997;23;20203;-90
2022/08/10 08:22:18;;;;;;;7.72;3.75;;;;;;;34.89;31.07;98848.28;6126578;23;20599;-91
2022/08/10 08:24:45;;;;;;;5.57;2.33;;;;;;;35.21;30.78;98849.47;6126603;23;20183;-89
2022/08/10 08:27:15;;;;;;;3.72;2.10;;;;;;;35.30;30.71;98841.72;6125277;23;20168;-91
2022/08/10 08:29:45;;;;;;;2.90;1.85;;;;;;;35.33;31.18;98844.75;6100873;23;20210;-89
2022/08/10 08:32:15;;;;;;;4.57;2.25;;;;;;;35.03;30.97;98849.63;6101033;23;20504;-89
2022/08/10 08:34:42;;;;;;;4.47;2.58;;;;;;;35.02;31.18;98840.63;6126789;23;20136;-90
2022/08/10 08:37:10;;;;;;;3.15;1.65;;;;;;;35.22;31.05;98837.50;6126591;23;20195;-91
2022/08/10 08:39:37;;;;;;;4.90;2.38;;;;;;;35.29;31.20;98842.75;6100613;23;20156;-91
2022/08/10 08:42:31;;;;;;;4.53;2.25;;;;;;;35.53;30.36;98841.53;6126669;23;20147;-91
2022/08/10 08:45:52;;;;;;;2.85;1.63;;;;;;;35.87;30.11;98828.72;6126039;23;20140;-91
2022/08/10 08:48:38;;;;;;;3.05;1.63;;;;;;;35.94;29.24;98834.81;6037914;23;20260;-91
2022/08/10 08:51:35;;;;;;;3.17;1.95;;;;;;;36.17;30.39;98831.91;6121086;23;20211;-90
2022/08/10 08:54:20;;;;;;;4.57;1.60;;;;;;;36.11;29.62;98825.53;6085750;23;20159;-91
2022/08/10 08:56:49;;;;;;;3.63;2.28;;;;;;;36.10;29.39;98818.44;6126709;23;20216;-90
2022/08/10 08:59:32;;;;;;;12.80;6.07;;;;;;;35.77;29.72;98830.22;6126529;23;20163;-89
2022/08/10 09:02:16;;;;;;;4.63;2.20;;;;;;;35.74;30.58;98821.72;6127083;23;20214;-89
2022/08/10 09:05:19;;;;;;;3.97;1.73;;;;;;;35.74;29.55;98824.47;6101039;23;20144;-92
2022/08/10 09:07:45;;;;;;;8.77;1.38;;;;;;;35.59;30.13;98821.47;6126882;23;20185;-91
2022/08/10 09:10:42;;;;;;;3.13;1.80;;;;;;;35.58;29.86;98828.84;6127124;23;20151;-90
2022/08/10 09:13:33;;;;;;;3.63;2.03;;;;;;;35.58;29.50;98820.66;6126638;23;20147;-90
2022/08/10 09:16:15;;;;;;;6.78;1.40;;;;;;;35.75;29.49;98821.47;6100726;23;20144;-90
2022/08/10 09:18:55;;;;;;;3.13;1.60;;;;;;;35.51;30.31;98822.69;6127489;23;20195;-91
2022/08/10 09:21:48;;;;;;;5.22;1.90;;;;;;;35.94;28.82;98819.28;6126685;23;20146;-90
2022/08/10 09:24:41;;;;;;;3.10;1.77;;;;;;;36.13;28.84;98819.84;6126669;23;20156;-92
2022/08/10 09:27:13;;;;;;;4.68;1.73;;;;;;;36.23;29.48;98809.06;6127076;23;20231;-91
2022/08/10 09:29:53;;;;;;;2.55;1.27;;;;;;;36.23;29.24;98818.09;6126627;23;20144;-91
2022/08/10 09:33:04;;;;;;;2.58;1.40;;;;;;;36.58;28.30;98808.69;6124891;23;20139;-91
2022/08/10 09:35:40;;;;;;;2.00;1.10;;;;;;;36.69;28.20;98808.53;6115866;23;20171;-90
2022/08/10 09:38:36;;;;;;;3.58;1.45;;;;;;;36.75;28.51;98804.78;6126853;23;20193;-91
2022/08/10 09:41:31;;;;;;;2.85;1.27;;;;;;;36.50;28.10;98812.72;6120854;23;20608;-91
2022/08/10 09:44:09;;;;;;;2.13;1.20;;;;;;;36.33;28.45;98810.00;6121616;23;20187;-90
2022/08/10 09:46:56;;;;;;;2.58;1.35;;;;;;;36.18;28.61;98806.28;6097987;23;20278;-90
2022/08/10 09:49:40;;;;;;;3.47;1.83;;;;;;;36.08;28.66;98806.13;6098863;23;20175;-90
2022/08/10 09:52:33;;;;;;;2.25;1.35;;;;;;;35.75;28.63;98805.09;6125509;23;20144;-93
2022/08/10 09:55:36;;;;;;;2.75;1.38;;;;;;;35.70;28.82;98812.38;6124714;23;20132;-90
2022/08/10 09:58:35;;;;;;;4.72;1.42;;;;;;;35.71;29.39;98806.69;6100439;23;20477;-90
2022/08/10 10:01:11;;;;;;;2.58;1.35;;;;;;;35.74;29.63;98806.19;6126278;23;20140;-91
2022/08/10 10:03:49;;;;;;;2.60;1.40;;;;;;;35.73;29.13;98804.53;6126073;23;20202;-91
2022/08/10 10:06:27;;;;;;;2.28;1.50;;;;;;;35.84;29.32;98793.75;6099291;23;20212;-90
2022/08/10 10:09:10;;;;;;;3.88;1.88;;;;;;;35.73;28.85;98801.81;6125917;23;20175;-91
2022/08/10 10:11:36;;;;;;;3.10;1.35;;;;;;;35.72;29.00;98810.22;6100493;23;20160;-91
2022/08/10 10:14:19;;;;;;;3.05;1.27;;;;;;;35.78;29.00;98804.59;6100844;23;20170;-90
2022/08/10 10:17:19;;;;;;;1.90;1.25;;;;;;;36.09;28.65;98800.41;6127906;23;20132;-90
2022/08/10 10:20:10;;;;;;;4.20;1.58;;;;;;;36.18;28.16;98792.63;6127762;23;20167;-90
2022/08/10 10:23:00;;;;;;;2.55;1.20;;;;;;;36.23;27.55;98803.59;6127657;23;20478;-91
2022/08/10 10:25:25;;;;;;;2.20;1.40;;;;;;;35.96;28.40;98805.38;6128222;23;20140;-91
2022/08/10 10:28:30;;;;;;;3.33;1.52;;;;;;;36.13;27.98;98800.75;6127845;23;20218;-90
2022/08/10 10:31:08;;;;;;;2.53;1.20;;;;;;;36.31;27.62;98797.69;6102158;23;20576;-90
2022/08/10 10:33:50;;;;;;;2.08;1.30;;;;;;;36.46;28.13;98784.22;6101955;23;20155;-90
2022/08/10 10:36:18;;;;;;;4.15;1.85;;;;;;;36.58;27.64;98782.22;6127476;23;20162;-90
2022/08/10 10:38:46;;;;;;;5.03;1.73;;;;;;;36.53;27.43;98776.69;6127543;23;20207;-90
2022/08/10 10:41:39;;;;;;;2.65;1.73;;;;;;;36.66;27.27;98780.94;6127613;23;20148;-90
2022/08/10 10:44:08;;;;;;;1.98;1.23;;;;;;;36.94;27.00;98781.53;6102216;23;20155;-90
2022/08/10 10:46:52;;;;;;;2.78;1.55;;;;;;;37.09;26.44;98778.09;6101768;23;20180;-88
2022/08/10 10:49:45;;;;;;;2.75;1.40;;;;;;;37.12;26.72;98776.75;6102071;23;20183;-89
2022/08/10 10:52:29;;;;;;;3.05;1.23;;;;;;;37.17;26.32;98780.34;6101524;23;20220;-90
2022/08/10 10:55:11;;;;;;;5.80;1.52;;;;;;;37.26;26.31;98772.50;6127550;23;20132;-91
2022/08/10 10:57:46;;;;;;;2.38;1.30;;;;;;;37.15;26.61;98768.03;6101950;23;20144;-91
2022/08/10 11:00:14;;;;;;;2.75;1.20;;;;;;;37.33;26.86;98770.34;6128181;23;20150;-90
2022/08/10 11:02:48;;;;;;;3.40;1.10;;;;;;;37.56;26.83;98767.28;6125991;23;20159;-90
2022/08/10 11:05:17;;;;;;;1.60;0.73;;;;;;;37.46;25.11;98773.50;6102322;23;20211;-90
2022/08/10 11:08:17;;;;;;;2.20;1.10;;;;;;;37.44;25.75;98774.84;6101586;23;20574;-91
2022/08/10 11:10:48;;;;;;;2.03;1.23;;;;;;;37.54;25.73;98769.44;6086324;23;20160;-91
2022/08/10 11:13:34;;;;;;;2.55;1.27;;;;;;;37.51;26.48;98762.59;6127221;23;20203;-90
2022/08/10 11:16:16;;;;;;;2.38;1.23;;;;;;;37.10;26.74;98768.00;6127523;23;20140;-92
2022/08/10 11:19:03;;;;;;;2.88;1.45;;;;;;;37.41;26.39;98762.53;6127548;23;20132;-91
2022/08/10 11:22:00;;;;;;;2.55;1.40;;;;;;;37.68;25.68;98765.19;6127271;23;20164;-90
2022/08/10 11:24:52;;;;;;;3.17;1.33;;;;;;;38.04;25.46;98753.34;6101478;23;20156;-91
2022/08/10 11:27:38;;;;;;;4.38;1.48;;;;;;;37.98;25.28;98770.84;6116346;23;20234;-91
2022/08/10 11:30:12;;;;;;;2.95;1.63;;;;;;;37.56;25.33;98759.06;6127284;23;20136;-90
2022/08/10 11:33:02;;;;;;;2.55;1.33;;;;;;;37.37;25.55;98768.75;6101424;23;20250;-91
2022/08/10 11:35:48;;;;;;;2.53;1.40;;;;;;;37.41;25.75;98764.44;6127426;23;20563;-92
2022/08/10 11:38:32;;;;;;;2.58;1.30;;;;;;;37.47;25.37;98763.41;6126880;23;20575;-90
2022/08/10 11:41:16;;;;;;;2.53;1.20;;;;;;;37.69;25.78;98761.34;6126329;23;20147;-92
2022/08/10 11:43:50;;;;;;;2.15;1.00;;;;;;;37.86;25.29;98764.75;6101487;23;20564;-91
2022/08/10 11:46:22;;;;;;;7.22;1.27;;;;;;;37.72;25.90;98759.97;6127018;23;20166;-93
2022/08/10 11:49:16;;;;;;;2.35;1.20;;;;;;;37.41;25.91;98768.00;6127009;23;20556;-89
2022/08/10 11:51:46;;;;;;;4.13;1.52;;;;;;;37.72;25.68;98766.28;6127474;23;20140;-91
2022/08/10 11:54:39;;;;;;;3.28;1.35;;;;;;;37.81;25.56;98763.88;6127466;23;20208;-91
2022/08/10 11:57:07;;;;;;;4.63;1.67;;;;;;;37.82;25.19;98760.84;6127317;23;20469;-91
2022/08/10 12:02:30;;;;;;;2.13;1.25;;;;;;;37.83;26.05;98761.69;6127730;23;20151;-91
2022/08/10 12:05:15;;;;;;;3.47;1.40;;;;;;;37.44;25.84;98759.28;6127709;23;20606;-91
2022/08/10 12:07:44;;;;;;;3.85;1.38;;;;;;;37.48;25.10;98751.34;6127232;23;20171;-90